This demonstration page uses our WeatherBlox Daily Observations layout. Learn more.

39.29038, -76.61219

Hourly Observations for September 20, 2019

Temp ( °F °C ) Dew Point ( °F °C ) Humidity (%) Winds ( mph kmh ) Pressure ( in mb ) Visibility ( mi km ) Precip ( " mm )
12:54 am 00:54 undefined 62 16.7 50 10 65 65 undefined N/A 30.27 1025 N/A 0 0
1:54 am 01:54 undefined 60 15.6 50 10 70 70 undefined N/A 30.27 1025 N/A 0 0
2:54 am 02:54 undefined 60 15.6 50 10 70 70 undefined N/A 30.27 1025 N/A 0 0
3:54 am 03:54 undefined 59 15 49 9.4 69 69 undefined N/A 30.27 1025 N/A 0 0
4:54 am 04:54 undefined 58 14.4 50 10 75 75 undefined N/A 30.3 1026 N/A 0 0
5:54 am 05:54 undefined 58 14.4 48 8.9 70 70 undefined N/A 30.3 1026 N/A 0 0
6:54 am 06:54 undefined 57 13.9 48 8.9 72 72 undefined N/A 30.3 1026 N/A 0 0
7:54 am 07:54 undefined 60 15.6 49 9.4 67 67 undefined N/A 30.3 1026 N/A 0 0
8:54 am 08:54 undefined 64 17.8 50 10 60 60 undefined N/A 30.33 1027 N/A 0 0
9:54 am 09:54 undefined 69 20.6 51 10.6 53 53 undefined N/A 30.3 1026 N/A 0 0
10:54 am 10:54 undefined 73 22.8 51 10.6 46 46 undefined N/A 30.3 1026 N/A 0 0
11:54 am 11:54 undefined 76 24.4 50 10 40 40 undefined N/A 30.27 1025 N/A 0 0
12:54 pm 12:54 undefined 78 25.6 50 10 37 37 undefined N/A 30.24 1024 N/A 0 0
1:54 pm 13:54 undefined 81 27.2 48 8.9 32 32 undefined N/A 30.21 1023 N/A 0 0
2:54 pm 14:54 undefined 80 26.7 47 8.3 31 31 undefined N/A 30.21 1023 N/A 0 0
3:54 pm 15:54 undefined 80 26.7 52 11.1 38 38 undefined N/A 30.18 1022 N/A 0 0
4:54 pm 16:54 undefined 77 25 53 11.7 43 43 undefined N/A 30.18 1022 N/A 0 0
5:54 pm 17:54 undefined 75 23.9 54 12.2 48 48 undefined N/A 30.18 1022 N/A 0 0
6:54 pm 18:54 undefined 76 24.4 48 8.9 37 37 undefined N/A 30.18 1022 N/A 0 0
7:54 pm 19:54 undefined 71 21.7 56 13.3 59 59 undefined N/A 30.21 1023 N/A 0 0
8:54 pm 20:54 undefined 70 21.1 56 13.3 61 61 undefined N/A 30.21 1023 N/A 0 0
9:54 pm 21:54 undefined 69 20.6 57 13.9 66 66 undefined N/A 30.21 1023 N/A 0 0
10:54 pm 22:54 undefined 67 19.4 56 13.3 68 68 undefined N/A 30.21 1023 N/A 0 0
11:54 pm 23:54 undefined 67 19.4 54 12.2 63 63 undefined N/A 30.21 1023 N/A 0 0

Powered by AerisWeather